sensor_id;sensor_type;location;lat;lon;timestamp;P1;durP1;ratioP1;P2;durP2;ratioP2
24663;SDS011;12791;50.992;13.788;2023-05-16T00:01:45;8.65;;;7.82;;
24663;SDS011;12791;50.992;13.788;2023-05-16T00:04:12;8.88;;;8.07;;
24663;SDS011;12791;50.992;13.788;2023-05-16T00:06:38;9.15;;;8.35;;
24663;SDS011;12791;50.992;13.788;2023-05-16T00:09:06;9.05;;;7.60;;
24663;SDS011;12791;50.992;13.788;2023-05-16T00:11:33;8.05;;;7.35;;
24663;SDS011;12791;50.992;13.788;2023-05-16T00:13:59;8.80;;;8.02;;
24663;SDS011;12791;50.992;13.788;2023-05-16T00:16:26;8.75;;;7.95;;
24663;SDS011;12791;50.992;13.788;2023-05-16T00:18:53;9.88;;;8.77;;
24663;SDS011;12791;50.992;13.788;2023-05-16T00:21:21;9.90;;;8.93;;
24663;SDS011;12791;50.992;13.788;2023-05-16T00:23:48;9.20;;;8.43;;
24663;SDS011;12791;50.992;13.788;2023-05-16T00:26:18;8.40;;;7.57;;
24663;SDS011;12791;50.992;13.788;2023-05-16T00:28:44;9.60;;;8.38;;
24663;SDS011;12791;50.992;13.788;2023-05-16T00:31:11;9.40;;;8.65;;
24663;SDS011;12791;50.992;13.788;2023-05-16T00:33:38;8.75;;;8.02;;
24663;SDS011;12791;50.992;13.788;2023-05-16T00:36:04;9.48;;;8.63;;
24663;SDS011;12791;50.992;13.788;2023-05-16T00:38:31;10.27;;;9.48;;
24663;SDS011;12791;50.992;13.788;2023-05-16T00:40:58;10.18;;;9.27;;
24663;SDS011;12791;50.992;13.788;2023-05-16T00:43:26;11.23;;;9.98;;
24663;SDS011;12791;50.992;13.788;2023-05-16T00:45:53;10.30;;;9.25;;
24663;SDS011;12791;50.992;13.788;2023-05-16T00:48:21;9.73;;;8.93;;
24663;SDS011;12791;50.992;13.788;2023-05-16T00:50:48;9.45;;;8.55;;
24663;SDS011;12791;50.992;13.788;2023-05-16T00:53:16;9.73;;;8.93;;
24663;SDS011;12791;50.992;13.788;2023-05-16T00:55:44;9.77;;;8.88;;
24663;SDS011;12791;50.992;13.788;2023-05-16T00:58:12;10.20;;;9.27;;
24663;SDS011;12791;50.992;13.788;2023-05-16T01:00:41;9.90;;;9.10;;
24663;SDS011;12791;50.992;13.788;2023-05-16T01:03:08;10.35;;;8.77;;
24663;SDS011;12791;50.992;13.788;2023-05-16T01:05:36;9.55;;;8.68;;
24663;SDS011;12791;50.992;13.788;2023-05-16T01:08:03;9.30;;;8.48;;
24663;SDS011;12791;50.992;13.788;2023-05-16T01:10:34;9.52;;;8.63;;
24663;SDS011;12791;50.992;13.788;2023-05-16T01:13:10;14.63;;;9.77;;
24663;SDS011;12791;50.992;13.788;2023-05-16T01:15:46;9.15;;;8.35;;
24663;SDS011;12791;50.992;13.788;2023-05-16T01:18:17;10.35;;;9.52;;
24663;SDS011;12791;50.992;13.788;2023-05-16T01:20:52;9.65;;;8.85;;
24663;SDS011;12791;50.992;13.788;2023-05-16T01:23:33;9.75;;;8.85;;
24663;SDS011;12791;50.992;13.788;2023-05-16T01:26:13;10.93;;;10.02;;
24663;SDS011;12791;50.992;13.788;2023-05-16T01:28:41;9.77;;;8.95;;
24663;SDS011;12791;50.992;13.788;2023-05-16T01:31:10;11.70;;;9.68;;
24663;SDS011;12791;50.992;13.788;2023-05-16T01:33:37;10.95;;;9.85;;
24663;SDS011;12791;50.992;13.788;2023-05-16T01:36:05;9.60;;;8.70;;
24663;SDS011;12791;50.992;13.788;2023-05-16T01:38:39;9.65;;;8.95;;
24663;SDS011;12791;50.992;13.788;2023-05-16T01:41:12;10.25;;;9.20;;
24663;SDS011;12791;50.992;13.788;2023-05-16T01:43:47;10.80;;;9.75;;
24663;SDS011;12791;50.992;13.788;2023-05-16T01:46:19;11.15;;;10.05;;
24663;SDS011;12791;50.992;13.788;2023-05-16T01:48:50;9.95;;;9.05;;
24663;SDS011;12791;50.992;13.788;2023-05-16T01:51:21;10.75;;;9.80;;
24663;SDS011;12791;50.992;13.788;2023-05-16T01:53:51;10.43;;;9.45;;
24663;SDS011;12791;50.992;13.788;2023-05-16T01:56:25;10.20;;;9.27;;
24663;SDS011;12791;50.992;13.788;2023-05-16T01:58:53;10.85;;;9.85;;
24663;SDS011;12791;50.992;13.788;2023-05-16T02:01:21;11.40;;;10.30;;
24663;SDS011;12791;50.992;13.788;2023-05-16T02:03:48;11.05;;;10.05;;
24663;SDS011;12791;50.992;13.788;2023-05-16T02:06:15;11.50;;;10.23;;
24663;SDS011;12791;50.992;13.788;2023-05-16T02:08:42;10.48;;;9.57;;
24663;SDS011;12791;50.992;13.788;2023-05-16T02:11:08;10.45;;;9.50;;
24663;SDS011;12791;50.992;13.788;2023-05-16T02:13:36;11.68;;;10.48;;
24663;SDS011;12791;50.992;13.788;2023-05-16T02:16:03;11.82;;;10.73;;
24663;SDS011;12791;50.992;13.788;2023-05-16T02:18:30;12.00;;;10.75;;
24663;SDS011;12791;50.992;13.788;2023-05-16T02:20:57;13.15;;;11.90;;
24663;SDS011;12791;50.992;13.788;2023-05-16T02:23:23;11.70;;;10.70;;
24663;SDS011;12791;50.992;13.788;2023-05-16T02:25:50;10.10;;;9.27;;
24663;SDS011;12791;50.992;13.788;2023-05-16T02:28:17;11.90;;;10.80;;
24663;SDS011;12791;50.992;13.788;2023-05-16T02:30:45;11.52;;;10.48;;
24663;SDS011;12791;50.992;13.788;2023-05-16T02:33:11;11.68;;;10.60;;
24663;SDS011;12791;50.992;13.788;2023-05-16T02:35:38;12.68;;;10.27;;
24663;SDS011;12791;50.992;13.788;2023-05-16T02:38:04;12.02;;;10.93;;
24663;SDS011;12791;50.992;13.788;2023-05-16T02:40:31;12.38;;;11.15;;
24663;SDS011;12791;50.992;13.788;2023-05-16T02:42:58;12.50;;;11.40;;
24663;SDS011;12791;50.992;13.788;2023-05-16T02:45:24;11.98;;;11.00;;
24663;SDS011;12791;50.992;13.788;2023-05-16T02:47:52;12.15;;;11.07;;
24663;SDS011;12791;50.992;13.788;2023-05-16T02:50:19;12.10;;;11.10;;
24663;SDS011;12791;50.992;13.788;2023-05-16T02:52:46;12.43;;;10.93;;
24663;SDS011;12791;50.992;13.788;2023-05-16T02:55:13;12.10;;;10.95;;
24663;SDS011;12791;50.992;13.788;2023-05-16T02:57:39;11.52;;;10.63;;
24663;SDS011;12791;50.992;13.788;2023-05-16T03:00:06;13.55;;;12.00;;
24663;SDS011;12791;50.992;13.788;2023-05-16T03:02:35;12.77;;;11.63;;
24663;SDS011;12791;50.992;13.788;2023-05-16T03:05:04;14.05;;;12.75;;
24663;SDS011;12791;50.992;13.788;2023-05-16T03:07:30;12.93;;;11.75;;
24663;SDS011;12791;50.992;13.788;2023-05-16T03:09:57;13.25;;;12.02;;
24663;SDS011;12791;50.992;13.788;2023-05-16T03:12:24;13.75;;;12.57;;
24663;SDS011;12791;50.992;13.788;2023-05-16T03:14:50;12.98;;;11.70;;
24663;SDS011;12791;50.992;13.788;2023-05-16T03:17:17;16.15;;;12.90;;
24663;SDS011;12791;50.992;13.788;2023-05-16T03:19:43;12.20;;;11.18;;
24663;SDS011;12791;50.992;13.788;2023-05-16T03:22:12;14.63;;;13.23;;
24663;SDS011;12791;50.992;13.788;2023-05-16T03:24:38;15.93;;;13.93;;
24663;SDS011;12791;50.992;13.788;2023-05-16T03:27:05;15.90;;;14.30;;
24663;SDS011;12791;50.992;13.788;2023-05-16T03:29:32;15.65;;;14.15;;
24663;SDS011;12791;50.992;13.788;2023-05-16T03:31:59;14.40;;;13.10;;
24663;SDS011;12791;50.992;13.788;2023-05-16T03:34:25;15.18;;;13.77;;
24663;SDS011;12791;50.992;13.788;2023-05-16T03:36:52;14.98;;;13.50;;
24663;SDS011;12791;50.992;13.788;2023-05-16T03:39:20;14.80;;;13.38;;
24663;SDS011;12791;50.992;13.788;2023-05-16T03:41:46;15.15;;;13.70;;
24663;SDS011;12791;50.992;13.788;2023-05-16T03:44:13;14.63;;;13.15;;
24663;SDS011;12791;50.992;13.788;2023-05-16T03:46:40;16.08;;;14.55;;
24663;SDS011;12791;50.992;13.788;2023-05-16T03:49:06;15.60;;;14.05;;
24663;SDS011;12791;50.992;13.788;2023-05-16T03:51:33;15.20;;;13.80;;
24663;SDS011;12791;50.992;13.788;2023-05-16T03:53:59;14.02;;;12.77;;
24663;SDS011;12791;50.992;13.788;2023-05-16T03:56:27;16.10;;;14.73;;
24663;SDS011;12791;50.992;13.788;2023-05-16T03:58:54;13.93;;;12.60;;
24663;SDS011;12791;50.992;13.788;2023-05-16T04:01:20;13.68;;;12.27;;
24663;SDS011;12791;50.992;13.788;2023-05-16T04:03:47;14.40;;;12.95;;
24663;SDS011;12791;50.992;13.788;2023-05-16T04:06:14;15.60;;;14.18;;
24663;SDS011;12791;50.992;13.788;2023-05-16T04:08:41;17.73;;;15.95;;
24663;SDS011;12791;50.992;13.788;2023-05-16T04:11:08;16.40;;;14.80;;
24663;SDS011;12791;50.992;13.788;2023-05-16T04:13:36;16.48;;;15.05;;
24663;SDS011;12791;50.992;13.788;2023-05-16T04:16:03;15.18;;;13.77;;
24663;SDS011;12791;50.992;13.788;2023-05-16T04:18:31;14.90;;;13.43;;
24663;SDS011;12791;50.992;13.788;2023-05-16T04:20:57;15.45;;;13.95;;
24663;SDS011;12791;50.992;13.788;2023-05-16T04:23:24;14.30;;;13.00;;
24663;SDS011;12791;50.992;13.788;2023-05-16T04:25:50;15.15;;;13.80;;
24663;SDS011;12791;50.992;13.788;2023-05-16T04:28:18;14.25;;;12.95;;
24663;SDS011;12791;50.992;13.788;2023-05-16T04:30:46;15.55;;;14.10;;
24663;SDS011;12791;50.992;13.788;2023-05-16T04:33:12;14.90;;;13.40;;
24663;SDS011;12791;50.992;13.788;2023-05-16T04:35:40;15.35;;;13.82;;
24663;SDS011;12791;50.992;13.788;2023-05-16T04:38:07;16.35;;;14.75;;
24663;SDS011;12791;50.992;13.788;2023-05-16T04:40:33;16.35;;;14.52;;
24663;SDS011;12791;50.992;13.788;2023-05-16T04:43:00;15.00;;;13.57;;
24663;SDS011;12791;50.992;13.788;2023-05-16T04:45:26;17.65;;;14.85;;
24663;SDS011;12791;50.992;13.788;2023-05-16T04:47:54;14.98;;;13.65;;
24663;SDS011;12791;50.992;13.788;2023-05-16T04:50:21;15.63;;;14.02;;
24663;SDS011;12791;50.992;13.788;2023-05-16T04:52:48;13.65;;;12.45;;
24663;SDS011;12791;50.992;13.788;2023-05-16T04:55:15;16.02;;;14.52;;
24663;SDS011;12791;50.992;13.788;2023-05-16T04:57:41;14.65;;;13.18;;
24663;SDS011;12791;50.992;13.788;2023-05-16T05:00:08;15.43;;;14.00;;
24663;SDS011;12791;50.992;13.788;2023-05-16T05:02:36;16.10;;;14.68;;
24663;SDS011;12791;50.992;13.788;2023-05-16T05:05:04;15.02;;;13.63;;
24663;SDS011;12791;50.992;13.788;2023-05-16T05:07:32;15.38;;;14.00;;
24663;SDS011;12791;50.992;13.788;2023-05-16T05:09:59;15.18;;;13.82;;
24663;SDS011;12791;50.992;13.788;2023-05-16T05:12:25;16.77;;;15.07;;
24663;SDS011;12791;50.992;13.788;2023-05-16T05:14:52;16.30;;;14.65;;
24663;SDS011;12791;50.992;13.788;2023-05-16T05:17:19;17.77;;;16.08;;
24663;SDS011;12791;50.992;13.788;2023-05-16T05:19:48;15.70;;;14.10;;
24663;SDS011;12791;50.992;13.788;2023-05-16T05:22:16;14.68;;;13.18;;
24663;SDS011;12791;50.992;13.788;2023-05-16T05:24:42;14.23;;;12.93;;
24663;SDS011;12791;50.992;13.788;2023-05-16T05:27:09;15.63;;;14.07;;
24663;SDS011;12791;50.992;13.788;2023-05-16T05:29:36;16.00;;;14.30;;
24663;SDS011;12791;50.992;13.788;2023-05-16T05:32:02;15.98;;;14.38;;
24663;SDS011;12791;50.992;13.788;2023-05-16T05:34:29;15.55;;;13.93;;
24663;SDS011;12791;50.992;13.788;2023-05-16T05:36:57;15.55;;;13.95;;
24663;SDS011;12791;50.992;13.788;2023-05-16T05:39:25;14.40;;;13.10;;
24663;SDS011;12791;50.992;13.788;2023-05-16T05:41:52;16.45;;;14.85;;
24663;SDS011;12791;50.992;13.788;2023-05-16T05:44:18;17.55;;;15.85;;
24663;SDS011;12791;50.992;13.788;2023-05-16T05:46:45;19.48;;;17.58;;
24663;SDS011;12791;50.992;13.788;2023-05-16T05:49:12;19.35;;;17.50;;
24663;SDS011;12791;50.992;13.788;2023-05-16T05:51:38;18.50;;;16.60;;
24663;SDS011;12791;50.992;13.788;2023-05-16T05:54:05;18.50;;;16.70;;
24663;SDS011;12791;50.992;13.788;2023-05-16T05:56:33;19.55;;;17.40;;
24663;SDS011;12791;50.992;13.788;2023-05-16T05:59:00;20.40;;;18.17;;
24663;SDS011;12791;50.992;13.788;2023-05-16T06:01:26;17.98;;;16.17;;
24663;SDS011;12791;50.992;13.788;2023-05-16T06:03:53;21.25;;;19.15;;
24663;SDS011;12791;50.992;13.788;2023-05-16T06:06:21;20.00;;;18.02;;
24663;SDS011;12791;50.992;13.788;2023-05-16T06:08:48;23.45;;;20.83;;
24663;SDS011;12791;50.992;13.788;2023-05-16T06:11:14;22.73;;;20.20;;
24663;SDS011;12791;50.992;13.788;2023-05-16T06:13:42;23.27;;;21.17;;
24663;SDS011;12791;50.992;13.788;2023-05-16T06:16:09;27.33;;;24.67;;
24663;SDS011;12791;50.992;13.788;2023-05-16T06:18:36;27.45;;;24.52;;
24663;SDS011;12791;50.992;13.788;2023-05-16T06:21:02;27.30;;;24.40;;
24663;SDS011;12791;50.992;13.788;2023-05-16T06:23:29;30.42;;;26.40;;
24663;SDS011;12791;50.992;13.788;2023-05-16T06:25:56;29.45;;;25.33;;
24663;SDS011;12791;50.992;13.788;2023-05-16T06:28:23;28.35;;;25.27;;
24663;SDS011;12791;50.992;13.788;2023-05-16T06:30:51;29.05;;;26.15;;
24663;SDS011;12791;50.992;13.788;2023-05-16T06:33:17;30.48;;;27.20;;
24663;SDS011;12791;50.992;13.788;2023-05-16T06:35:44;30.42;;;27.27;;
24663;SDS011;12791;50.992;13.788;2023-05-16T06:38:12;30.55;;;27.25;;
24663;SDS011;12791;50.992;13.788;2023-05-16T06:40:38;28.88;;;24.83;;
24663;SDS011;12791;50.992;13.788;2023-05-16T06:43:05;28.33;;;25.45;;
24663;SDS011;12791;50.992;13.788;2023-05-16T06:45:32;27.35;;;24.48;;
24663;SDS011;12791;50.992;13.788;2023-05-16T06:48:00;29.52;;;25.73;;
24663;SDS011;12791;50.992;13.788;2023-05-16T06:50:27;31.52;;;28.25;;
24663;SDS011;12791;50.992;13.788;2023-05-16T06:52:53;29.92;;;26.83;;
24663;SDS011;12791;50.992;13.788;2023-05-16T06:55:20;33.08;;;28.58;;
24663;SDS011;12791;50.992;13.788;2023-05-16T06:57:46;35.42;;;31.52;;
24663;SDS011;12791;50.992;13.788;2023-05-16T07:00:13;32.85;;;29.35;;
24663;SDS011;12791;50.992;13.788;2023-05-16T07:02:40;40.13;;;33.08;;
24663;SDS011;12791;50.992;13.788;2023-05-16T07:05:08;35.03;;;31.23;;
24663;SDS011;12791;50.992;13.788;2023-05-16T07:07:35;38.15;;;32.28;;
24663;SDS011;12791;50.992;13.788;2023-05-16T07:10:02;42.15;;;33.75;;
24663;SDS011;12791;50.992;13.788;2023-05-16T07:12:29;40.28;;;33.15;;
24663;SDS011;12791;50.992;13.788;2023-05-16T07:14:55;38.95;;;33.35;;
24663;SDS011;12791;50.992;13.788;2023-05-16T07:17:22;44.67;;;36.78;;
24663;SDS011;12791;50.992;13.788;2023-05-16T07:19:49;39.10;;;33.70;;
24663;SDS011;12791;50.992;13.788;2023-05-16T07:22:17;38.78;;;32.38;;
24663;SDS011;12791;50.992;13.788;2023-05-16T07:24:43;37.67;;;32.47;;
24663;SDS011;12791;50.992;13.788;2023-05-16T07:27:10;32.03;;;27.65;;
24663;SDS011;12791;50.992;13.788;2023-05-16T07:29:37;33.88;;;28.20;;
24663;SDS011;12791;50.992;13.788;2023-05-16T07:32:04;41.00;;;31.83;;
24663;SDS011;12791;50.992;13.788;2023-05-16T07:34:31;40.22;;;33.20;;
24663;SDS011;12791;50.992;13.788;2023-05-16T07:36:58;35.80;;;31.92;;
24663;SDS011;12791;50.992;13.788;2023-05-16T07:39:26;32.33;;;28.30;;
24663;SDS011;12791;50.992;13.788;2023-05-16T07:41:52;33.05;;;29.55;;
24663;SDS011;12791;50.992;13.788;2023-05-16T07:44:19;30.10;;;26.42;;
24663;SDS011;12791;50.992;13.788;2023-05-16T07:46:45;29.88;;;26.48;;
24663;SDS011;12791;50.992;13.788;2023-05-16T07:49:12;29.15;;;25.83;;
24663;SDS011;12791;50.992;13.788;2023-05-16T07:51:38;28.83;;;25.15;;
24663;SDS011;12791;50.992;13.788;2023-05-16T07:54:05;25.65;;;21.98;;
24663;SDS011;12791;50.992;13.788;2023-05-16T07:56:33;22.67;;;20.27;;
24663;SDS011;12791;50.992;13.788;2023-05-16T07:59:00;20.60;;;18.35;;
24663;SDS011;12791;50.992;13.788;2023-05-16T08:01:26;21.15;;;18.80;;
24663;SDS011;12791;50.992;13.788;2023-05-16T08:03:53;20.75;;;17.48;;
24663;SDS011;12791;50.992;13.788;2023-05-16T08:06:20;18.30;;;16.38;;
24663;SDS011;12791;50.992;13.788;2023-05-16T08:08:46;18.13;;;16.23;;
24663;SDS011;12791;50.992;13.788;2023-05-16T08:11:13;14.70;;;13.18;;
24663;SDS011;12791;50.992;13.788;2023-05-16T08:13:41;17.58;;;15.00;;
24663;SDS011;12791;50.992;13.788;2023-05-16T08:16:08;16.02;;;14.35;;
24663;SDS011;12791;50.992;13.788;2023-05-16T08:18:35;14.90;;;13.50;;
24663;SDS011;12791;50.992;13.788;2023-05-16T08:21:02;15.75;;;14.00;;
24663;SDS011;12791;50.992;13.788;2023-05-16T08:23:29;15.43;;;13.93;;
24663;SDS011;12791;50.992;13.788;2023-05-16T08:25:55;15.73;;;12.13;;
24663;SDS011;12791;50.992;13.788;2023-05-16T08:28:22;14.15;;;12.75;;
24663;SDS011;12791;50.992;13.788;2023-05-16T08:30:51;14.93;;;11.98;;
24663;SDS011;12791;50.992;13.788;2023-05-16T08:33:17;15.02;;;13.38;;
24663;SDS011;12791;50.992;13.788;2023-05-16T08:35:44;15.07;;;13.13;;
24663;SDS011;12791;50.992;13.788;2023-05-16T08:38:12;14.02;;;11.68;;
24663;SDS011;12791;50.992;13.788;2023-05-16T08:40:39;15.20;;;13.60;;
24663;SDS011;12791;50.992;13.788;2023-05-16T08:43:06;13.18;;;11.85;;
24663;SDS011;12791;50.992;13.788;2023-05-16T08:45:33;12.20;;;11.07;;
24663;SDS011;12791;50.992;13.788;2023-05-16T08:48:01;12.88;;;11.75;;
24663;SDS011;12791;50.992;13.788;2023-05-16T08:50:31;13.35;;;12.05;;
24663;SDS011;12791;50.992;13.788;2023-05-16T08:52:57;12.50;;;11.20;;
24663;SDS011;12791;50.992;13.788;2023-05-16T08:55:31;11.68;;;10.43;;
24663;SDS011;12791;50.992;13.788;2023-05-16T08:57:58;13.98;;;12.60;;
24663;SDS011;12791;50.992;13.788;2023-05-16T09:00:25;11.82;;;10.73;;
24663;SDS011;12791;50.992;13.788;2023-05-16T09:02:53;11.77;;;10.52;;
24663;SDS011;12791;50.992;13.788;2023-05-16T09:05:21;12.90;;;11.45;;
24663;SDS011;12791;50.992;13.788;2023-05-16T09:07:48;13.02;;;11.43;;
24663;SDS011;12791;50.992;13.788;2023-05-16T09:10:15;12.13;;;10.75;;
24663;SDS011;12791;50.992;13.788;2023-05-16T09:12:42;13.57;;;12.13;;
24663;SDS011;12791;50.992;13.788;2023-05-16T09:15:09;13.63;;;12.38;;
24663;SDS011;12791;50.992;13.788;2023-05-16T09:17:36;15.93;;;13.52;;
24663;SDS011;12791;50.992;13.788;2023-05-16T09:20:10;12.50;;;11.27;;
24663;SDS011;12791;50.992;13.788;2023-05-16T09:22:39;12.68;;;11.38;;
24663;SDS011;12791;50.992;13.788;2023-05-16T09:25:16;12.68;;;11.48;;
24663;SDS011;12791;50.992;13.788;2023-05-16T09:27:44;13.50;;;11.70;;
24663;SDS011;12791;50.992;13.788;2023-05-16T09:30:12;11.73;;;10.52;;
24663;SDS011;12791;50.992;13.788;2023-05-16T09:32:41;11.23;;;10.13;;
24663;SDS011;12791;50.992;13.788;2023-05-16T09:35:09;12.27;;;10.82;;
24663;SDS011;12791;50.992;13.788;2023-05-16T09:37:44;12.18;;;11.07;;
24663;SDS011;12791;50.992;13.788;2023-05-16T09:40:11;11.65;;;10.43;;
24663;SDS011;12791;50.992;13.788;2023-05-16T09:42:38;13.05;;;10.23;;
24663;SDS011;12791;50.992;13.788;2023-05-16T09:45:05;12.93;;;11.65;;
24663;SDS011;12791;50.992;13.788;2023-05-16T09:47:32;10.77;;;9.75;;
24663;SDS011;12791;50.992;13.788;2023-05-16T09:50:00;10.50;;;9.45;;
24663;SDS011;12791;50.992;13.788;2023-05-16T09:52:27;12.05;;;10.45;;
24663;SDS011;12791;50.992;13.788;2023-05-16T09:54:56;11.02;;;9.93;;
24663;SDS011;12791;50.992;13.788;2023-05-16T09:57:23;11.48;;;10.38;;
24663;SDS011;12791;50.992;13.788;2023-05-16T09:59:51;9.60;;;8.68;;
24663;SDS011;12791;50.992;13.788;2023-05-16T10:02:17;12.25;;;10.70;;
24663;SDS011;12791;50.992;13.788;2023-05-16T10:04:45;12.07;;;10.88;;
24663;SDS011;12791;50.992;13.788;2023-05-16T10:07:12;15.57;;;12.43;;
24663;SDS011;12791;50.992;13.788;2023-05-16T10:09:39;13.05;;;11.73;;
24663;SDS011;12791;50.992;13.788;2023-05-16T10:12:08;13.02;;;11.52;;
24663;SDS011;12791;50.992;13.788;2023-05-16T10:14:38;10.82;;;9.75;;
24663;SDS011;12791;50.992;13.788;2023-05-16T10:17:07;10.60;;;9.70;;
24663;SDS011;12791;50.992;13.788;2023-05-16T10:19:37;11.95;;;10.75;;
24663;SDS011;12791;50.992;13.788;2023-05-16T10:22:05;12.55;;;11.35;;
24663;SDS011;12791;50.992;13.788;2023-05-16T10:24:34;12.82;;;11.63;;
24663;SDS011;12791;50.992;13.788;2023-05-16T10:27:10;10.52;;;9.52;;
24663;SDS011;12791;50.992;13.788;2023-05-16T10:29:37;11.75;;;10.65;;
24663;SDS011;12791;50.992;13.788;2023-05-16T10:32:05;10.95;;;9.88;;
24663;SDS011;12791;50.992;13.788;2023-05-16T10:34:33;10.65;;;9.63;;
24663;SDS011;12791;50.992;13.788;2023-05-16T10:37:00;11.13;;;10.13;;
24663;SDS011;12791;50.992;13.788;2023-05-16T10:39:27;11.23;;;10.02;;
24663;SDS011;12791;50.992;13.788;2023-05-16T10:41:55;11.45;;;10.10;;
24663;SDS011;12791;50.992;13.788;2023-05-16T10:44:25;11.32;;;9.90;;
24663;SDS011;12791;50.992;13.788;2023-05-16T10:46:52;10.48;;;9.57;;
24663;SDS011;12791;50.992;13.788;2023-05-16T10:49:20;13.15;;;10.00;;
24663;SDS011;12791;50.992;13.788;2023-05-16T10:52:07;12.60;;;9.77;;
24663;SDS011;12791;50.992;13.788;2023-05-16T10:54:35;13.10;;;11.63;;
24663;SDS011;12791;50.992;13.788;2023-05-16T10:57:03;12.60;;;11.27;;
24663;SDS011;12791;50.992;13.788;2023-05-16T10:59:39;17.30;;;11.10;;
24663;SDS011;12791;50.992;13.788;2023-05-16T11:02:20;11.88;;;10.55;;
24663;SDS011;12791;50.992;13.788;2023-05-16T11:04:48;11.77;;;10.30;;
24663;SDS011;12791;50.992;13.788;2023-05-16T11:07:16;11.45;;;9.68;;
24663;SDS011;12791;50.992;13.788;2023-05-16T11:09:44;9.60;;;8.68;;
24663;SDS011;12791;50.992;13.788;2023-05-16T11:12:11;11.65;;;10.45;;
24663;SDS011;12791;50.992;13.788;2023-05-16T11:14:40;16.20;;;9.13;;
24663;SDS011;12791;50.992;13.788;2023-05-16T11:17:08;10.32;;;9.05;;
24663;SDS011;12791;50.992;13.788;2023-05-16T11:19:39;8.90;;;7.90;;
24663;SDS011;12791;50.992;13.788;2023-05-16T11:22:08;10.20;;;8.77;;
24663;SDS011;12791;50.992;13.788;2023-05-16T11:24:44;10.95;;;9.77;;
24663;SDS011;12791;50.992;13.788;2023-05-16T11:27:18;12.90;;;8.70;;
24663;SDS011;12791;50.992;13.788;2023-05-16T11:29:48;8.48;;;7.68;;
24663;SDS011;12791;50.992;13.788;2023-05-16T11:32:17;8.60;;;7.70;;
24663;SDS011;12791;50.992;13.788;2023-05-16T11:34:45;11.13;;;8.23;;
24663;SDS011;12791;50.992;13.788;2023-05-16T11:37:12;7.65;;;6.95;;
24663;SDS011;12791;50.992;13.788;2023-05-16T11:39:39;10.80;;;8.30;;
24663;SDS011;12791;50.992;13.788;2023-05-16T11:42:06;8.02;;;7.25;;
24663;SDS011;12791;50.992;13.788;2023-05-16T11:44:33;10.90;;;8.27;;
24663;SDS011;12791;50.992;13.788;2023-05-16T11:47:01;14.38;;;12.90;;
24663;SDS011;12791;50.992;13.788;2023-05-16T11:49:28;13.95;;;11.68;;
24663;SDS011;12791;50.992;13.788;2023-05-16T11:51:55;10.35;;;9.45;;
24663;SDS011;12791;50.992;13.788;2023-05-16T11:54:22;10.48;;;8.30;;
24663;SDS011;12791;50.992;13.788;2023-05-16T11:56:49;8.93;;;7.60;;
24663;SDS011;12791;50.992;13.788;2023-05-16T11:59:16;10.10;;;6.60;;
24663;SDS011;12791;50.992;13.788;2023-05-16T12:01:43;10.68;;;8.07;;
24663;SDS011;12791;50.992;13.788;2023-05-16T12:04:14;7.68;;;6.90;;
24663;SDS011;12791;50.992;13.788;2023-05-16T12:06:41;7.03;;;6.35;;
24663;SDS011;12791;50.992;13.788;2023-05-16T12:09:10;7.65;;;6.90;;
24663;SDS011;12791;50.992;13.788;2023-05-16T12:11:38;6.30;;;5.82;;
24663;SDS011;12791;50.992;13.788;2023-05-16T12:14:06;9.60;;;6.80;;
24663;SDS011;12791;50.992;13.788;2023-05-16T12:16:33;7.82;;;5.80;;
24663;SDS011;12791;50.992;13.788;2023-05-16T12:19:01;7.90;;;7.20;;
24663;SDS011;12791;50.992;13.788;2023-05-16T12:21:30;8.48;;;6.75;;
24663;SDS011;12791;50.992;13.788;2023-05-16T12:23:57;7.85;;;5.88;;
24663;SDS011;12791;50.992;13.788;2023-05-16T12:26:24;7.53;;;6.80;;
24663;SDS011;12791;50.992;13.788;2023-05-16T12:28:55;6.28;;;5.68;;
24663;SDS011;12791;50.992;13.788;2023-05-16T12:31:24;7.72;;;7.03;;
24663;SDS011;12791;50.992;13.788;2023-05-16T12:33:51;6.38;;;5.85;;
24663;SDS011;12791;50.992;13.788;2023-05-16T12:36:19;4.90;;;4.60;;
24663;SDS011;12791;50.992;13.788;2023-05-16T12:38:47;5.80;;;5.40;;
24663;SDS011;12791;50.992;13.788;2023-05-16T12:41:16;9.90;;;6.82;;
24663;SDS011;12791;50.992;13.788;2023-05-16T12:43:43;9.88;;;7.53;;
24663;SDS011;12791;50.992;13.788;2023-05-16T12:46:10;7.57;;;6.57;;
24663;SDS011;12791;50.992;13.788;2023-05-16T12:48:37;7.47;;;6.15;;
24663;SDS011;12791;50.992;13.788;2023-05-16T12:51:09;6.45;;;5.38;;
24663;SDS011;12791;50.992;13.788;2023-05-16T12:53:40;6.43;;;5.93;;
24663;SDS011;12791;50.992;13.788;2023-05-16T12:56:09;8.63;;;6.68;;
24663;SDS011;12791;50.992;13.788;2023-05-16T12:58:36;7.35;;;6.75;;
24663;SDS011;12791;50.992;13.788;2023-05-16T13:01:03;6.50;;;5.97;;
24663;SDS011;12791;50.992;13.788;2023-05-16T13:03:30;6.13;;;5.50;;
24663;SDS011;12791;50.992;13.788;2023-05-16T13:05:57;6.43;;;5.78;;
24663;SDS011;12791;50.992;13.788;2023-05-16T13:08:24;7.93;;;6.50;;
24663;SDS011;12791;50.992;13.788;2023-05-16T13:10:51;7.60;;;6.90;;
24663;SDS011;12791;50.992;13.788;2023-05-16T13:13:19;8.90;;;7.88;;
24663;SDS011;12791;50.992;13.788;2023-05-16T13:15:46;6.75;;;6.13;;
24663;SDS011;12791;50.992;13.788;2023-05-16T13:18:12;6.30;;;4.85;;
24663;SDS011;12791;50.992;13.788;2023-05-16T13:20:39;5.22;;;4.72;;
24663;SDS011;12791;50.992;13.788;2023-05-16T13:23:06;6.88;;;4.78;;
24663;SDS011;12791;50.992;13.788;2023-05-16T13:25:33;4.63;;;4.22;;
24663;SDS011;12791;50.992;13.788;2023-05-16T13:27:59;4.47;;;4.18;;
24663;SDS011;12791;50.992;13.788;2023-05-16T13:30:27;7.93;;;7.00;;
24663;SDS011;12791;50.992;13.788;2023-05-16T13:32:54;8.57;;;7.30;;
24663;SDS011;12791;50.992;13.788;2023-05-16T13:35:21;6.43;;;5.88;;
24663;SDS011;12791;50.992;13.788;2023-05-16T13:37:48;5.93;;;5.32;;
24663;SDS011;12791;50.992;13.788;2023-05-16T13:40:14;5.75;;;5.30;;
24663;SDS011;12791;50.992;13.788;2023-05-16T13:42:41;6.50;;;5.65;;
24663;SDS011;12791;50.992;13.788;2023-05-16T13:45:08;5.90;;;5.40;;
24663;SDS011;12791;50.992;13.788;2023-05-16T13:47:36;4.20;;;3.90;;
24663;SDS011;12791;50.992;13.788;2023-05-16T13:50:03;5.18;;;4.70;;
24663;SDS011;12791;50.992;13.788;2023-05-16T13:52:33;4.70;;;4.30;;
24663;SDS011;12791;50.992;13.788;2023-05-16T13:55:00;5.20;;;4.30;;
24663;SDS011;12791;50.992;13.788;2023-05-16T13:57:27;9.80;;;8.85;;
24663;SDS011;12791;50.992;13.788;2023-05-16T13:59:54;9.68;;;8.18;;
24663;SDS011;12791;50.992;13.788;2023-05-16T14:02:21;6.25;;;5.65;;
24663;SDS011;12791;50.992;13.788;2023-05-16T14:04:51;8.00;;;6.30;;
24663;SDS011;12791;50.992;13.788;2023-05-16T14:07:18;6.78;;;5.95;;
24663;SDS011;12791;50.992;13.788;2023-05-16T14:09:44;6.07;;;5.30;;
24663;SDS011;12791;50.992;13.788;2023-05-16T14:12:11;5.53;;;4.28;;
24663;SDS011;12791;50.992;13.788;2023-05-16T14:14:37;6.10;;;5.40;;
24663;SDS011;12791;50.992;13.788;2023-05-16T14:17:04;5.72;;;5.18;;
24663;SDS011;12791;50.992;13.788;2023-05-16T14:19:31;4.30;;;4.00;;
24663;SDS011;12791;50.992;13.788;2023-05-16T14:21:59;9.13;;;7.78;;